Terminal Aerodrome Forecast
Issued by NWS

Home | Current Version | Previous Version | Text Only | Print | Product List | Glossary On
Versions: 1 2 3 4 5 6 7 8 9 10 11 12 13 14 15 16 17
000
FTUS43 KIND 010100 AAA
TAFHUF
TAF AMD
KHUF 010143Z 0102/0124 12004KT 1SM -SN BR OVC006
      TEMPO 0102/0106 VRB03KT 3/4SM -SN VV004
     FM011000 30004KT 1SM -SN OVC004
     FM012100 29007KT 5SM BR OVC020=

USA.gov is the U.S. government's official web portal to all federal, state and local government web resources and services.